Time;durP1;ratioP1;P1;durP2;ratioP2;P2;SDS_P1;SDS_P2;PMS_P1;PMS_P2;Temp;Humidity;BMP_temperature;BMP_pressure;BME280_temperature;BME280_humidity;BME280_pressure;Samples;Min_cycle;Max_cycle;Signal;HPM_P1;HPM_P2
2023/01/10 00:02:08;;;;;;;;;;;;;;;7.90;81.68;99400.75;5068916;28;20003;-72
2023/01/10 00:04:33;;;;;;;;;;;;;;;7.27;84.02;99377.69;5043520;28;19926;-73
2023/01/10 00:06:59;;;;;;;;;;;;;;;7.25;82.17;99389.66;5051616;28;19967;-73
2023/01/10 00:09:24;;;;;;;;;;;;;;;7.42;80.44;99422.78;5068914;28;19924;-73
2023/01/10 00:14:34;;;;;;;;;;;;;;;7.28;80.70;99458.81;5069077;28;19927;-73
2023/01/10 00:17:00;;;;;;;;;;;;;;;7.28;81.85;99466.50;5052234;28;19921;-74
2023/01/10 00:19:25;;;;;;;;;;;;;;;7.22;82.27;99467.41;5052197;28;19966;-73
2023/01/10 00:21:50;;;;;;;;;;;;;;;7.27;81.50;99480.16;5050174;28;19951;-72
2023/01/10 00:24:17;;;;;;;;;;;;;;;7.48;80.82;99512.38;5071530;28;19916;-73
2023/01/10 00:26:44;;;;;;;;;;;;;;;7.38;81.56;99508.25;5073114;28;20575;-72
2023/01/10 00:29:10;;;;;;;;;;;;;;;7.25;82.89;99503.25;5053867;28;19921;-73
2023/01/10 00:31:36;;;;;;;;;;;;;;;7.25;83.31;99507.50;5073984;28;19920;-73
2023/01/10 00:34:01;;;;;;;;;;;;;;;7.60;82.22;99525.06;5073476;28;19924;-73
2023/01/10 00:36:26;;;;;;;;;;;;;;;7.63;83.06;99537.00;5072908;28;21020;-73
2023/01/10 00:38:51;;;;;;;;;;;;;;;7.70;83.47;99536.91;5045093;28;20294;-73
2023/01/10 00:44:00;;;;;;;;;;;;;;;7.10;84.95;99517.06;5072492;28;19927;-72
2023/01/10 00:46:26;;;;;;;;;;;;;;;7.21;85.27;99526.34;5072070;28;19916;-73
2023/01/10 00:48:51;;;;;;;;;;;;;;;7.33;83.15;99539.03;5071816;28;19920;-73
2023/01/10 00:51:17;;;;;;;;;;;;;;;7.49;82.98;99553.38;5070867;28;19942;-73
2023/01/10 00:53:42;;;;;;;;;;;;;;;7.29;85.08;99548.44;5071679;28;20413;-73
2023/01/10 00:56:07;;;;;;;;;;;;;;;7.15;84.68;99550.31;5046896;28;19953;-72
2023/01/10 00:58:32;;;;;;;;;;;;;;;7.48;83.64;99581.56;5071334;28;19928;-74
2023/01/10 01:00:58;;;;;;;;;;;;;;;7.83;84.00;99583.78;5071644;28;19916;-74
2023/01/10 01:03:23;;;;;;;;;;;;;;;7.60;86.22;99565.25;5051714;28;19960;-73
2023/01/10 01:05:48;;;;;;;;;;;;;;;6.98;87.82;99539.34;5070076;28;19916;-73
2023/01/10 01:08:14;;;;;;;;;;;;;;;7.03;86.35;99551.25;5072760;28;19964;-73
2023/01/10 01:10:39;;;;;;;;;;;;;;;6.94;84.59;99569.28;5053584;28;20531;-72
2023/01/10 01:13:15;;;;;;;;;;;;;;;7.15;83.79;99586.16;5053821;28;19944;-73
2023/01/10 01:15:40;;;;;;;;;;;;;;;7.46;82.88;99604.66;5054518;28;20406;-73
2023/01/10 01:18:05;;;;;;;;;;;;;;;7.18;84.24;99598.09;5070681;28;19962;-73
2023/01/10 01:20:31;;;;;;;;;;;;;;;7.09;85.02;99605.00;5053587;28;20335;-73
2023/01/10 01:22:56;;;;;;;;;;;;;;;7.09;85.08;99599.88;5053396;28;20889;-73
2023/01/10 01:25:21;;;;;;;;;;;;;;;7.34;84.90;99615.03;5071589;28;19916;-73
2023/01/10 01:27:47;;;;;;;;;;;;;;;7.34;86.49;99615.03;5070951;28;19920;-73
2023/01/10 01:30:12;;;;;;;;;;;;;;;7.15;87.19;99608.38;5070550;28;19928;-72
2023/01/10 01:32:38;;;;;;;;;;;;;;;7.16;86.39;99604.94;5072870;28;19916;-73
2023/01/10 01:35:04;;;;;;;;;;;;;;;7.03;87.77;99605.03;5071314;28;19920;-73
2023/01/10 01:37:29;;;;;;;;;;;;;;;7.00;85.56;99611.88;5072046;28;20282;-73
2023/01/10 01:39:54;;;;;;;;;;;;;;;7.23;85.87;99637.31;5071735;28;19923;-73
2023/01/10 01:42:25;;;;;;;;;;;;;;;7.73;84.41;99669.34;5071013;28;20208;-73
2023/01/10 01:45:08;;;;;;;;;;;;;;;6.99;88.60;99613.59;5053477;28;20028;-72
2023/01/10 01:47:39;;;;;;;;;;;;;;;7.06;88.42;99614.41;5069628;28;19999;-73
2023/01/10 01:50:05;;;;;;;;;;;;;;;7.15;85.91;99624.59;5053038;28;19920;-72
2023/01/10 01:52:33;;;;;;;;;;;;;;;7.25;86.04;99638.16;5053447;28;19966;-73
2023/01/10 01:54:58;;;;;;;;;;;;;;;7.73;83.76;99656.50;5054279;28;19916;-74
2023/01/10 01:57:24;;;;;;;;;;;;;;;7.71;87.57;99640.31;5052922;28;19931;-73
2023/01/10 01:59:50;;;;;;;;;;;;;;;7.45;89.56;99620.91;5051528;28;19951;-72
2023/01/10 02:02:19;;;;;;;;;;;;;;;7.41;88.31;99611.56;5071355;28;19920;-73
2023/01/10 02:04:45;;;;;;;;;;;;;;;7.66;87.64;99624.13;5052434;28;19920;-73
2023/01/10 02:07:11;;;;;;;;;;;;;;;7.45;87.82;99597.00;5071029;28;19951;-73
2023/01/10 02:09:38;;;;;;;;;;;;;;;7.07;89.48;99582.81;5049538;28;20412;-72
2023/01/10 02:12:03;;;;;;;;;;;;;;;7.89;84.13;99619.63;5052612;28;19920;-72
2023/01/10 02:14:28;;;;;;;;;;;;;;;8.31;85.13;99621.69;5053155;28;19923;-73
2023/01/10 02:16:54;;;;;;;;;;;;;;;7.45;91.40;99569.63;5051063;28;19920;-73
2023/01/10 02:19:31;;;;;;;;;;;;;;;7.61;88.74;99578.03;5052383;28;19916;-73
2023/01/10 02:21:56;;;;;;;;;;;;;;;7.93;86.73;99585.34;5051357;28;19919;-74
2023/01/10 02:24:29;;;;;;;;;;;;;;;7.86;88.27;99570.91;5071346;28;19920;-72
2023/01/10 02:26:57;;;;;;;;;;;;;;;8.36;88.83;99582.25;5053304;28;19930;-73
2023/01/10 02:29:32;;;;;;;;;;;;;;;7.45;95.42;99523.50;5068152;28;19920;-73
2023/01/10 02:32:06;;;;;;;;;;;;;;;8.12;89.04;99559.50;5070702;28;19931;-73
2023/01/10 02:34:50;;;;;;;;;;;;;;;7.47;94.84;99534.59;5071729;28;20094;-73
2023/01/10 02:37:16;;;;;;;;;;;;;;;7.65;90.35;99548.09;5070651;28;19927;-73
2023/01/10 02:39:47;;;;;;;;;;;;;;;7.97;90.60;99555.41;5049160;28;19924;-73
2023/01/10 02:42:14;;;;;;;;;;;;;;;7.90;92.71;99549.50;5069220;28;19923;-73
2023/01/10 02:45:12;;;;;;;;;;;;;;;7.83;91.10;99537.63;5051700;28;20040;-73
2023/01/10 02:47:39;;;;;;;;;;;;;;;7.74;94.50;99536.00;5035348;28;20020;-73
2023/01/10 02:50:37;;;;;;;;;;;;;;;7.85;92.17;99540.16;5053701;28;19920;-73
2023/01/10 02:53:04;;;;;;;;;;;;;;;7.42;95.36;99521.00;5039019;28;20431;-72
2023/01/10 02:55:33;;;;;;;;;;;;;;;7.53;92.93;99539.66;5052352;28;19919;-73
2023/01/10 02:58:31;;;;;;;;;;;;;;;8.48;89.09;99575.28;5051128;28;19920;-73
2023/01/10 03:01:08;;;;;;;;;;;;;;;7.82;100.00;99510.25;5051952;28;19927;-73
2023/01/10 03:03:42;;;;;;;;;;;;;;;7.58;100.00;99505.47;5050906;28;19920;-73
2023/01/10 03:06:08;;;;;;;;;;;;;;;7.39;100.00;99495.41;5069258;28;20420;-73
2023/01/10 03:08:33;;;;;;;;;;;;;;;8.01;97.79;99515.19;5069545;28;19921;-73
2023/01/10 03:11:00;;;;;;;;;;;;;;;8.27;98.53;99530.19;5070126;28;19924;-72
2023/01/10 03:13:26;;;;;;;;;;;;;;;8.47;100.00;99515.41;5069000;28;19927;-72
2023/01/10 03:15:52;;;;;;;;;;;;;;;8.21;100.00;99487.53;5051648;28;19945;-72
2023/01/10 03:18:19;;;;;;;;;;;;;;;8.12;100.00;99477.41;5051126;28;19920;-71
2023/01/10 03:20:44;;;;;;;;;;;;;;;7.94;100.00;99479.34;5051686;28;19927;-72
2023/01/10 03:23:10;;;;;;;;;;;;;;;7.99;100.00;99481.00;5042175;28;20366;-72
2023/01/10 03:25:35;;;;;;;;;;;;;;;8.11;100.00;99491.94;5050267;28;19920;-72
2023/01/10 03:28:05;;;;;;;;;;;;;;;7.99;100.00;99481.00;5051001;28;19916;-73
2023/01/10 03:30:50;;;;;;;;;;;;;;;7.77;100.00;99470.19;5051455;28;19920;-72
2023/01/10 03:33:17;;;;;;;;;;;;;;;8.26;100.00;99485.75;5067016;28;20374;-72
2023/01/10 03:35:45;;;;;;;;;;;;;;;8.47;100.00;99483.75;5050166;28;20003;-72
2023/01/10 03:38:39;;;;;;;;;;;;;;;8.58;100.00;99469.03;5069626;28;19924;-71
2023/01/10 03:41:06;;;;;;;;;;;;;;;8.33;100.00;99441.16;5052799;28;20736;-72
2023/01/10 03:46:20;;;;;;;;;;;;;;;7.74;100.00;99442.88;5069147;28;19977;-72
2023/01/10 03:48:45;;;;;;;;;;;;;;;8.00;100.00;99457.03;5050382;28;19927;-72
2023/01/10 03:51:11;;;;;;;;;;;;;;;7.93;100.00;99462.25;5051582;28;19924;-72
2023/01/10 03:53:36;;;;;;;;;;;;;;;8.29;100.00;99483.13;5050975;28;19927;-72
2023/01/10 03:56:02;;;;;;;;;;;;;;;8.04;100.00;99463.81;5049817;28;19928;-72
2023/01/10 03:58:27;;;;;;;;;;;;;;;8.03;100.00;99472.38;5044618;28;19921;-74
2023/01/10 04:00:52;;;;;;;;;;;;;;;7.77;100.00;99465.91;5075144;28;19970;-72
2023/01/10 04:03:18;;;;;;;;;;;;;;;8.34;100.00;99486.47;5053495;28;19924;-73
2023/01/10 04:05:43;;;;;;;;;;;;;;;7.70;100.00;99469.41;5053190;28;20060;-73
2023/01/10 04:08:08;;;;;;;;;;;;;;;8.09;100.00;99493.66;5073577;28;19920;-72
2023/01/10 04:10:33;;;;;;;;;;;;;;;7.80;100.00;99485.50;5072431;28;20021;-73
2023/01/10 04:13:01;;;;;;;;;;;;;;;7.89;100.00;99486.25;5074035;28;19959;-73
2023/01/10 04:15:27;;;;;;;;;;;;;;;8.22;100.00;99494.34;5073214;28;20380;-73
2023/01/10 04:17:52;;;;;;;;;;;;;;;8.28;100.00;99491.69;5054485;28;19962;-72
2023/01/10 04:20:18;;;;;;;;;;;;;;;7.86;100.00;99468.34;5071856;28;19919;-72
2023/01/10 04:22:48;;;;;;;;;;;;;;;7.82;100.00;99474.38;5053772;28;19924;-72
2023/01/10 04:25:13;;;;;;;;;;;;;;;8.11;100.00;99480.81;5072902;28;20393;-74
2023/01/10 04:27:39;;;;;;;;;;;;;;;8.05;100.00;99470.63;5070747;28;19926;-74
2023/01/10 04:30:04;;;;;;;;;;;;;;;7.89;100.00;99468.31;5073150;28;20392;-74
2023/01/10 04:32:29;;;;;;;;;;;;;;;8.15;100.00;99464.53;5072752;28;19924;-79
2023/01/10 04:34:55;;;;;;;;;;;;;;;8.26;100.00;99475.47;5074287;28;20405;-74
2023/01/10 04:37:20;;;;;;;;;;;;;;;8.02;100.00;99447.59;5073551;28;20281;-74
2023/01/10 04:39:45;;;;;;;;;;;;;;;8.01;100.00;99454.47;5072426;28;19924;-73
2023/01/10 04:42:10;;;;;;;;;;;;;;;7.12;100.00;99438.50;5071605;28;19920;-73
2023/01/10 04:44:35;;;;;;;;;;;;;;;7.96;100.00;99476.78;5053224;28;19912;-73
2023/01/10 04:47:01;;;;;;;;;;;;;;;7.36;100.00;99451.88;5072544;28;19920;-72
2023/01/10 04:49:26;;;;;;;;;;;;;;;7.45;100.00;99472.25;5071103;28;20023;-73
2023/01/10 04:51:51;;;;;;;;;;;;;;;7.34;100.00;99492.03;5073193;28;19974;-73
2023/01/10 04:54:20;;;;;;;;;;;;;;;7.42;100.00;99500.50;5075558;28;20027;-75
2023/01/10 04:56:45;;;;;;;;;;;;;;;7.70;100.00;99520.69;5054456;28;20033;-74
2023/01/10 04:59:10;;;;;;;;;;;;;;;7.82;100.00;99512.81;5071574;28;19960;-74
2023/01/10 05:01:37;;;;;;;;;;;;;;;8.06;100.00;99518.53;5073306;28;20281;-74
2023/01/10 05:04:03;;;;;;;;;;;;;;;8.01;100.00;99507.50;5073510;28;20016;-74
2023/01/10 05:06:28;;;;;;;;;;;;;;;7.54;100.00;99484.13;5072629;28;20019;-73
2023/01/10 05:08:53;;;;;;;;;;;;;;;7.53;100.00;99493.53;5054448;28;20561;-74
2023/01/10 05:11:18;;;;;;;;;;;;;;;7.39;100.00;99503.09;5070572;28;19920;-74
2023/01/10 05:13:44;;;;;;;;;;;;;;;6.95;100.00;99506.94;5072955;28;20043;-74
2023/01/10 05:16:09;;;;;;;;;;;;;;;7.73;100.00;99551.41;5052989;28;21273;-74
2023/01/10 05:18:34;;;;;;;;;;;;;;;7.48;100.00;99541.44;5070532;28;20338;-73
2023/01/10 05:21:03;;;;;;;;;;;;;;;7.06;100.00;99537.59;5053784;28;20383;-74
2023/01/10 05:23:29;;;;;;;;;;;;;;;7.48;100.00;99563.63;5071324;28;19920;-73
2023/01/10 05:25:54;;;;;;;;;;;;;;;7.30;100.00;99557.00;5072482;28;19916;-74
2023/01/10 05:28:19;;;;;;;;;;;;;;;7.66;100.00;99563.47;5054099;28;19920;-73
2023/01/10 05:30:44;;;;;;;;;;;;;;;7.48;100.00;99561.94;5053457;28;19928;-74
2023/01/10 05:33:09;;;;;;;;;;;;;;;7.84;100.00;99580.31;5072631;28;19924;-74
2023/01/10 05:35:35;;;;;;;;;;;;;;;7.94;100.00;99573.41;5069318;28;20062;-74
2023/01/10 05:38:00;;;;;;;;;;;;;;;8.10;100.00;99556.09;5068881;28;19967;-73
2023/01/10 05:40:25;;;;;;;;;;;;;;;7.89;100.00;99537.56;5071585;28;19998;-73
2023/01/10 05:42:50;;;;;;;;;;;;;;;7.76;100.00;99533.44;5072445;28;20340;-73
2023/01/10 05:45:16;;;;;;;;;;;;;;;7.97;100.00;99545.97;5060138;28;19942;-74
2023/01/10 05:47:41;;;;;;;;;;;;;;;7.66;100.00;99527.56;5053521;28;20293;-75
2023/01/10 05:50:06;;;;;;;;;;;;;;;8.06;100.00;99539.88;5070605;28;20417;-73
2023/01/10 05:52:32;;;;;;;;;;;;;;;7.66;100.00;99524.13;5054544;28;20409;-73
2023/01/10 05:54:57;;;;;;;;;;;;;;;7.64;100.00;99531.00;5070183;28;19916;-73
2023/01/10 05:57:23;;;;;;;;;;;;;;;7.68;100.00;99542.91;5070145;28;19920;-74
2023/01/10 05:59:49;;;;;;;;;;;;;;;7.72;100.00;99549.72;5071119;28;19916;-73
2023/01/10 06:02:14;;;;;;;;;;;;;;;7.51;100.00;99551.66;5068871;28;20266;-73
2023/01/10 06:04:39;;;;;;;;;;;;;;;7.45;100.00;99561.94;5072373;28;19916;-74
2023/01/10 06:07:04;;;;;;;;;;;;;;;7.56;100.00;99568.69;5071173;28;19924;-74
2023/01/10 06:09:30;;;;;;;;;;;;;;;7.40;100.00;99576.53;5052529;28;20056;-73
2023/01/10 06:11:55;;;;;;;;;;;;;;;7.58;100.00;99587.47;5070853;28;20015;-73
2023/01/10 06:14:20;;;;;;;;;;;;;;;7.96;100.00;99600.72;5069957;28;19920;-73
2023/01/10 06:16:46;;;;;;;;;;;;;;;8.06;100.00;99592.91;5071327;28;20422;-74
2023/01/10 06:19:11;;;;;;;;;;;;;;;8.10;100.00;99592.00;5052178;28;19959;-73
2023/01/10 06:21:36;;;;;;;;;;;;;;;7.83;100.00;99572.69;5069832;28;20035;-73
2023/01/10 06:24:01;;;;;;;;;;;;;;;8.24;100.00;99582.41;5071777;28;19971;-73
2023/01/10 06:26:26;;;;;;;;;;;;;;;7.92;100.00;99567.44;5071027;28;19928;-74
2023/01/10 06:28:52;;;;;;;;;;;;;;;8.36;100.00;99574.53;5052660;28;19920;-73
2023/01/10 06:31:17;;;;;;;;;;;;;;;8.47;100.00;99581.28;5052369;28;19920;-73
2023/01/10 06:33:42;;;;;;;;;;;;;;;8.65;100.00;99563.03;5053980;28;19941;-74
2023/01/10 06:36:08;;;;;;;;;;;;;;;7.74;100.00;99527.47;5071278;28;20028;-74
2023/01/10 06:38:33;;;;;;;;;;;;;;;8.41;100.00;99545.44;5051993;28;19913;-74
2023/01/10 06:41:11;;;;;;;;;;;;;;;8.04;100.00;99533.09;5069908;28;19912;-72
2023/01/10 06:43:36;;;;;;;;;;;;;;;7.99;100.00;99540.00;5054833;28;20950;-73
2023/01/10 06:46:02;;;;;;;;;;;;;;;7.62;100.00;99548.09;5070514;28;19924;-72
2023/01/10 06:48:27;;;;;;;;;;;;;;;8.03;100.00;99580.09;5071341;28;20023;-73
2023/01/10 06:50:52;;;;;;;;;;;;;;;8.18;100.00;99582.47;5069127;28;19924;-72
2023/01/10 06:53:17;;;;;;;;;;;;;;;8.04;100.00;99579.25;5068632;28;20576;-78
2023/01/10 06:55:43;;;;;;;;;;;;;;;8.48;100.00;99588.94;5068893;28;20338;-73
2023/01/10 06:58:08;;;;;;;;;;;;;;;8.26;100.00;99572.13;5070624;28;19920;-72
2023/01/10 07:00:33;;;;;;;;;;;;;;;8.72;100.00;99580.06;5069282;28;19947;-72
2023/01/10 07:02:59;;;;;;;;;;;;;;;8.66;100.00;99580.13;5070093;28;19973;-72
2023/01/10 07:05:24;;;;;;;;;;;;;;;8.08;100.00;99561.25;5071376;28;19963;-72
2023/01/10 07:07:49;;;;;;;;;;;;;;;7.48;100.00;99561.94;5069570;28;19920;-73
2023/01/10 07:10:15;;;;;;;;;;;;;;;8.01;100.00;99589.56;5069770;28;19976;-74
2023/01/10 07:12:40;;;;;;;;;;;;;;;8.16;100.00;99604.75;5050667;28;19952;-74
2023/01/10 07:15:06;;;;;;;;;;;;;;;8.53;100.00;99618.00;5068869;28;20404;-72
2023/01/10 07:17:31;;;;;;;;;;;;;;;8.09;100.00;99600.56;5070067;28;19927;-72
2023/01/10 07:19:56;;;;;;;;;;;;;;;7.92;100.00;99606.75;5069962;28;20397;-73
2023/01/10 07:22:21;;;;;;;;;;;;;;;8.16;100.00;99623.56;5070460;28;20408;-73
2023/01/10 07:24:47;;;;;;;;;;;;;;;8.36;100.00;99617.31;5069538;28;20529;-72
2023/01/10 07:27:12;;;;;;;;;;;;;;;8.07;100.00;99622.81;5069240;28;20598;-73
2023/01/10 07:29:37;;;;;;;;;;;;;;;8.21;100.00;99631.22;5068804;28;20500;-72
2023/01/10 07:32:03;;;;;;;;;;;;;;;7.78;100.00;99626.56;5069543;28;19917;-72
2023/01/10 07:34:28;;;;;;;;;;;;;;;8.45;100.00;99637.78;5068127;28;19966;-72
2023/01/10 07:36:53;;;;;;;;;;;;;;;8.03;100.00;99621.16;5069627;28;19951;-72
2023/01/10 07:39:18;;;;;;;;;;;;;;;8.45;100.00;99611.25;5070383;28;19920;-72
2023/01/10 07:41:45;;;;;;;;;;;;;;;8.43;100.00;99610.44;5069546;28;19934;-72
2023/01/10 07:44:11;;;;;;;;;;;;;;;8.08;100.00;99612.53;5044542;28;20394;-73
2023/01/10 07:46:36;;;;;;;;;;;;;;;8.00;100.00;99623.75;5067534;28;19924;-72
2023/01/10 07:49:01;;;;;;;;;;;;;;;8.18;100.00;99631.22;5068855;28;19930;-73
2023/01/10 07:51:26;;;;;;;;;;;;;;;8.34;100.00;99648.13;5049513;28;19924;-73
2023/01/10 07:53:52;;;;;;;;;;;;;;;8.02;100.00;99657.94;5050572;28;19974;-72
2023/01/10 07:56:17;;;;;;;;;;;;;;;8.05;100.00;99655.31;5069226;28;19940;-72
2023/01/10 07:58:45;;;;;;;;;;;;;;;8.55;100.00;99677.00;5068405;28;19920;-71
2023/01/10 08:01:10;;;;;;;;;;;;;;;8.06;100.00;99657.03;5069870;28;20433;-72
2023/01/10 08:03:35;;;;;;;;;;;;;;;8.37;100.00;99676.34;5052195;28;19927;-73
2023/01/10 08:06:04;;;;;;;;;;;;;;;8.41;100.00;99653.22;5068975;28;19928;-72
2023/01/10 08:08:30;;;;;;;;;;;;;;;7.84;100.00;99644.44;5049065;28;19926;-72
2023/01/10 08:10:55;;;;;;;;;;;;;;;7.51;100.00;99664.41;5068237;28;19924;-72
2023/01/10 08:13:22;;;;;;;;;;;;;;;8.33;100.00;99692.63;5051405;28;20432;-72
2023/01/10 08:15:49;;;;;;;;;;;;;;;8.42;100.00;99685.75;5068791;28;19967;-73
2023/01/10 08:18:14;;;;;;;;;;;;;;;8.75;100.00;99690.41;5051769;28;20456;-72
2023/01/10 08:20:40;;;;;;;;;;;;;;;8.22;100.00;99668.81;5049170;28;19920;-72
2023/01/10 08:23:05;;;;;;;;;;;;;;;8.06;100.00;99682.69;5050215;28;20997;-72
2023/01/10 08:25:30;;;;;;;;;;;;;;;8.42;100.00;99693.44;5069989;28;19916;-73
2023/01/10 08:27:55;;;;;;;;;;;;;;;8.29;100.00;99685.84;5051588;28;19924;-72
2023/01/10 08:30:21;;;;;;;;;;;;;;;8.75;100.00;99680.16;5068209;28;19950;-73
2023/01/10 08:32:46;;;;;;;;;;;;;;;8.64;100.00;99671.75;5068819;28;19970;-72
2023/01/10 08:35:11;;;;;;;;;;;;;;;8.43;100.00;99665.16;5051766;28;19936;-72
2023/01/10 08:37:36;;;;;;;;;;;;;;;8.25;100.00;99653.38;5050293;28;20453;-73
2023/01/10 08:40:02;;;;;;;;;;;;;;;8.17;100.00;99657.78;5070474;28;19927;-72
2023/01/10 08:42:27;;;;;;;;;;;;;;;7.89;100.00;99664.91;5068800;28;19961;-74
2023/01/10 08:44:53;;;;;;;;;;;;;;;8.87;100.00;99694.56;5051031;28;19915;-73
2023/01/10 08:47:18;;;;;;;;;;;;;;;8.69;100.00;99680.25;5071392;28;19931;-72
2023/01/10 08:49:43;;;;;;;;;;;;;;;8.96;100.00;99675.56;5070390;28;19920;-72
2023/01/10 08:52:08;;;;;;;;;;;;;;;9.13;100.00;99670.22;5071903;28;19920;-73
2023/01/10 08:54:34;;;;;;;;;;;;;;;9.14;100.00;99657.31;5072681;28;19931;-73
2023/01/10 08:56:59;;;;;;;;;;;;;;;9.48;100.00;99656.78;5054366;28;19917;-72
2023/01/10 08:59:24;;;;;;;;;;;;;;;9.45;100.00;99643.97;5070788;28;19959;-73
2023/01/10 09:01:50;;;;;;;;;;;;;;;9.34;100.00;99628.72;5071198;28;20027;-73
2023/01/10 09:04:16;;;;;;;;;;;;;;;8.97;100.00;99620.78;5073753;28;19966;-73
2023/01/10 09:06:41;;;;;;;;;;;;;;;9.08;100.00;99626.59;5051211;28;20410;-73
2023/01/10 09:09:06;;;;;;;;;;;;;;;9.45;100.00;99636.25;5053467;28;19920;-73
2023/01/10 09:11:31;;;;;;;;;;;;;;;9.47;100.00;99624.22;5071272;28;19924;-73
2023/01/10 09:13:56;;;;;;;;;;;;;;;8.54;100.00;99618.84;5072371;28;20314;-73
2023/01/10 09:16:22;;;;;;;;;;;;;;;9.37;100.00;99643.25;5070450;28;19916;-72
2023/01/10 09:18:48;;;;;;;;;;;;;;;8.93;100.00;99632.81;5073189;28;20641;-73
2023/01/10 09:21:13;;;;;;;;;;;;;;;9.24;100.00;99641.75;5051379;28;20289;-73
2023/01/10 09:23:39;;;;;;;;;;;;;;;9.18;100.00;99643.56;5070116;28;19921;-72
2023/01/10 09:26:04;;;;;;;;;;;;;;;9.52;100.00;99652.44;5053877;28;19923;-73
2023/01/10 09:28:30;;;;;;;;;;;;;;;9.08;100.00;99636.03;5054279;28;20003;-73
2023/01/10 09:30:55;;;;;;;;;;;;;;;9.33;100.00;99646.75;5070268;28;19921;-73
2023/01/10 09:33:20;;;;;;;;;;;;;;;8.99;100.00;99642.16;5069655;28;19948;-73
2023/01/10 09:35:46;;;;;;;;;;;;;;;9.09;100.00;99651.41;5052271;28;19916;-73
2023/01/10 09:38:13;;;;;;;;;;;;;;;9.34;100.00;99658.72;5069330;28;19970;-73
2023/01/10 09:41:00;;;;;;;;;;;;;;;8.99;100.00;99644.72;5056279;28;19938;-73
2023/01/10 09:43:36;;;;;;;;;;;;;;;9.49;100.00;99663.63;5052512;28;19955;-72
2023/01/10 09:46:01;;;;;;;;;;;;;;;9.72;100.00;99655.50;5051798;28;19930;-72
2023/01/10 09:48:39;;;;;;;;;;;;;;;9.40;100.00;99640.63;5070575;28;19919;-72
2023/01/10 09:51:16;;;;;;;;;;;;;;;9.14;100.00;99629.03;5069520;28;20041;-72
2023/01/10 09:53:41;;;;;;;;;;;;;;;9.30;100.00;99636.50;5070671;28;20276;-73
2023/01/10 09:56:06;;;;;;;;;;;;;;;9.21;100.00;99653.81;5044308;28;19927;-72
2023/01/10 09:58:32;;;;;;;;;;;;;;;9.10;100.00;99645.41;5051610;28;19927;-73
2023/01/10 10:00:58;;;;;;;;;;;;;;;9.14;100.00;99654.75;5052497;28;19937;-73
2023/01/10 10:03:39;;;;;;;;;;;;;;;9.09;100.00;99648.84;5053300;28;19920;-73
2023/01/10 10:06:05;;;;;;;;;;;;;;;8.96;100.00;99658.47;5068152;28;19920;-73
2023/01/10 10:08:30;;;;;;;;;;;;;;;8.56;100.00;99647.91;5071283;28;19920;-73
2023/01/10 10:10:59;;;;;;;;;;;;;;;9.30;100.00;99672.50;5057229;28;19955;-74
2023/01/10 10:13:44;;;;;;;;;;;;;;;8.72;100.00;99664.78;5087391;28;19916;-74
2023/01/10 10:16:21;;;;;;;;;;;;;;;8.74;100.00;99686.16;5054641;28;19977;-74
2023/01/10 10:18:58;;;;;;;;;;;;;;;8.67;100.00;99681.97;5069852;28;19977;-75
2023/01/10 10:21:36;;;;;;;;;;;;;;;8.71;100.00;99688.78;5077042;28;19961;-74
2023/01/10 10:24:10;;;;;;;;;;;;;;;9.17;100.00;99690.69;5073696;28;19916;-74
2023/01/10 10:26:41;;;;;;;;;;;;;;;8.65;100.00;99673.44;5074581;28;19912;-74
2023/01/10 10:29:06;;;;;;;;;;;;;;;8.56;100.00;99671.00;5054424;28;20002;-75
2023/01/10 10:31:49;;;;;;;;;;;;;;;8.92;100.00;99684.22;5073128;28;19999;-74
2023/01/10 10:34:18;;;;;;;;;;;;;;;8.81;100.00;99676.66;5073085;28;19973;-74
2023/01/10 10:36:53;;;;;;;;;;;;;;;8.93;100.00;99670.50;5070011;28;19934;-73
2023/01/10 10:39:20;;;;;;;;;;;;;;;8.69;100.00;99664.84;5050669;28;20395;-73
2023/01/10 10:41:45;;;;;;;;;;;;;;;9.24;100.00;99667.44;5052513;28;19920;-73
2023/01/10 10:44:17;;;;;;;;;;;;;;;9.26;100.00;99655.41;5051740;28;19918;-73
2023/01/10 10:46:43;;;;;;;;;;;;;;;9.36;100.00;99651.84;5051183;28;19927;-73
2023/01/10 10:49:16;;;;;;;;;;;;;;;9.53;100.00;99642.09;5068882;28;20316;-73
2023/01/10 10:51:44;;;;;;;;;;;;;;;9.16;100.00;99635.00;5051390;28;19942;-72
2023/01/10 10:54:13;;;;;;;;;;;;;;;9.76;100.00;99646.00;5050260;28;20278;-72
2023/01/10 10:56:38;;;;;;;;;;;;;;;9.97;100.00;99630.16;5050782;28;20386;-73
2023/01/10 10:59:03;;;;;;;;;;;;;;;9.87;100.00;99617.50;5069391;28;19924;-73
2023/01/10 11:01:29;;;;;;;;;;;;;;;9.23;100.00;99598.94;5051723;28;20419;-72
2023/01/10 11:03:58;;;;;;;;;;;;;;;9.26;100.00;99601.44;5049473;28;19927;-73
2023/01/10 11:06:24;;;;;;;;;;;;;;;9.14;100.00;99595.63;5050766;28;19923;-72
2023/01/10 11:08:50;;;;;;;;;;;;;;;9.19;100.00;99598.13;5051361;28;19920;-72
2023/01/10 11:11:22;;;;;;;;;;;;;;;9.51;100.00;99610.47;5041149;28;19963;-73
2023/01/10 11:13:52;;;;;;;;;;;;;;;9.72;100.00;99600.66;5068149;28;19969;-72
2023/01/10 11:16:31;;;;;;;;;;;;;;;9.57;100.00;99588.91;5050236;28;19916;-72
2023/01/10 11:19:17;;;;;;;;;;;;;;;9.26;100.00;99573.19;5049086;28;19964;-72
2023/01/10 11:21:44;;;;;;;;;;;;;;;10.40;100.00;99583.00;5060283;28;20547;-73
2023/01/10 11:24:20;;;;;;;;;;;;;;;10.30;100.00;99560.88;5067767;28;19923;-73
2023/01/10 11:26:45;;;;;;;;;;;;;;;9.96;100.00;99550.44;5049072;28;19935;-73
2023/01/10 11:29:17;;;;;;;;;;;;;;;9.85;100.00;99532.63;5048938;28;19920;-73
2023/01/10 11:31:44;;;;;;;;;;;;;;;9.23;100.00;99514.13;5049206;28;19924;-72
2023/01/10 11:34:36;;;;;;;;;;;;;;;9.27;100.00;99523.50;5069726;28;20015;-72
2023/01/10 11:37:16;;;;;;;;;;;;;;;9.63;100.00;99543.34;5066196;28;19967;-72
2023/01/10 11:39:41;;;;;;;;;;;;;;;9.71;100.00;99520.06;5051231;28;19946;-72
2023/01/10 11:42:25;;;;;;;;;;;;;;;9.61;100.00;99518.56;5049735;28;19916;-72
2023/01/10 11:44:50;;;;;;;;;;;;;;;9.64;100.00;99519.31;5066587;28;20023;-73
2023/01/10 11:47:19;;;;;;;;;;;;;;;9.58;100.00;99524.59;5036448;28;20060;-72
2023/01/10 11:49:44;;;;;;;;;;;;;;;9.79;100.00;99515.63;5048791;28;20851;-72
2023/01/10 11:52:23;;;;;;;;;;;;;;;9.44;100.00;99516.28;5050503;28;19935;-72
2023/01/10 11:54:48;;;;;;;;;;;;;;;9.78;100.00;99515.63;5051188;28;19960;-72
2023/01/10 11:57:22;;;;;;;;;;;;;;;9.74;100.00;99498.56;5049421;28;19968;-73
2023/01/10 12:00:00;;;;;;;;;;;;;;;9.74;100.00;99484.00;5041901;28;19923;-72
2023/01/10 12:02:36;;;;;;;;;;;;;;;9.85;100.00;99494.03;5067627;28;19920;-72
2023/01/10 12:05:02;;;;;;;;;;;;;;;9.04;100.00;99465.66;5050610;28;19926;-73
2023/01/10 12:07:27;;;;;;;;;;;;;;;9.45;100.00;99470.88;5068842;28;20654;-73
2023/01/10 12:09:55;;;;;;;;;;;;;;;9.03;100.00;99463.94;5069904;28;19960;-73
2023/01/10 12:12:24;;;;;;;;;;;;;;;9.08;100.00;99469.88;5067801;28;20094;-74
2023/01/10 12:14:50;;;;;;;;;;;;;;;9.40;100.00;99478.69;5049832;28;19920;-73
2023/01/10 12:17:22;;;;;;;;;;;;;;;9.57;100.00;99471.47;5050737;28;19927;-72
2023/01/10 12:19:48;;;;;;;;;;;;;;;9.57;100.00;99458.63;5069648;28;20007;-72
2023/01/10 12:22:14;;;;;;;;;;;;;;;9.79;100.00;99446.16;5055935;28;19925;-72
2023/01/10 12:24:39;;;;;;;;;;;;;;;9.80;100.00;99424.69;5052987;28;19923;-72
2023/01/10 12:27:05;;;;;;;;;;;;;;;10.21;100.00;99424.63;5053621;28;19917;-72
2023/01/10 12:29:34;;;;;;;;;;;;;;;10.23;100.00;99405.69;5054667;28;19966;-73
2023/01/10 12:32:00;;;;;;;;;;;;;;;10.06;100.00;99397.53;5054462;28;19924;-72
2023/01/10 12:34:26;;;;;;;;;;;;;;;9.79;100.00;99381.03;5055119;28;19921;-72
2023/01/10 12:36:51;;;;;;;;;;;;;;;9.83;100.00;99390.38;5052824;28;19923;-72
2023/01/10 12:39:23;;;;;;;;;;;;;;;9.84;100.00;99381.75;5072541;28;19923;-72
2023/01/10 12:45:03;;;;;;;;;;;;;;;10.08;100.00;99382.91;5070387;28;19969;-71
2023/01/10 12:47:47;;;;;;;;;;;;;;;9.76;100.00;99375.91;5071568;28;19916;-72
2023/01/10 12:50:24;;;;;;;;;;;;;;;9.88;100.00;99378.22;5071419;28;19926;-72
2023/01/10 12:52:58;;;;;;;;;;;;;;;9.93;100.00;99376.41;5072391;28;19946;-73
2023/01/10 12:55:25;;;;;;;;;;;;;;;9.75;100.00;99369.94;5071672;28;19913;-73
2023/01/10 12:57:52;;;;;;;;;;;;;;;9.66;100.00;99356.44;5053260;28;20047;-73
2023/01/10 13:00:18;;;;;;;;;;;;;;;9.98;100.00;99364.25;5050304;28;20417;-73
2023/01/10 13:02:44;;;;;;;;;;;;;;;10.03;100.00;99352.16;5071114;28;19926;-73